createdAt,value
2022-09-03T00:00:53.121Z,88449.28
2022-09-03T00:03:37.848Z,88446.16
2022-09-03T00:06:22.686Z,88441.94
2022-09-03T00:09:07.452Z,88444.44
2022-09-03T00:11:52.204Z,88441.31
2022-09-03T00:14:37.260Z,88434.19
2022-09-03T00:17:21.993Z,88424.28
2022-09-03T00:20:06.800Z,88419.44
2022-09-03T00:22:51.473Z,88423.16
2022-09-03T00:25:36.213Z,88421.06
2022-09-03T00:28:21.056Z,88425.81
2022-09-03T00:31:05.907Z,88431.53
2022-09-03T00:33:50.566Z,88428.34
2022-09-03T00:36:35.335Z,88427.13
2022-09-03T00:39:20.018Z,88437.22
2022-09-03T00:42:05.161Z,88436.41
2022-09-03T00:44:49.741Z,88434.88
2022-09-03T00:47:34.524Z,88429.38
2022-09-03T00:50:19.392Z,88443.00
2022-09-03T00:53:04.248Z,88435.94
2022-09-03T00:55:49.012Z,88434.19
2022-09-03T00:58:33.579Z,88428.75
2022-09-03T01:01:18.597Z,88438.19
2022-09-03T01:04:03.686Z,88440.69
2022-09-03T01:06:48.457Z,88438.53
2022-09-03T01:09:33.113Z,88440.03
2022-09-03T01:12:17.863Z,88437.53
2022-09-03T01:15:02.601Z,88430.66
2022-09-03T01:17:47.430Z,88437.06
2022-09-03T01:20:32.160Z,88433.59
2022-09-03T01:23:16.893Z,88431.63
2022-09-03T01:26:01.697Z,88439.72
2022-09-03T01:28:46.473Z,88438.91
2022-09-03T01:31:31.398Z,88435.06
2022-09-03T01:34:16.509Z,88423.44
2022-09-03T01:37:01.304Z,88426.88
2022-09-03T01:39:46.029Z,88423.19
2022-09-03T01:42:30.859Z,88425.09
2022-09-03T01:45:15.597Z,88427.31
2022-09-03T01:48:00.275Z,88431.72
2022-09-03T01:50:45.162Z,88436.09
2022-09-03T01:53:29.951Z,88438.47
2022-09-03T01:56:14.772Z,88440.13
2022-09-03T01:58:59.348Z,88429.72
2022-09-03T02:01:44.372Z,88430.28
2022-09-03T02:04:29.493Z,88432.50
2022-09-03T02:07:14.322Z,88435.94
2022-09-03T02:09:58.939Z,88440.41
2022-09-03T02:12:43.728Z,88449.97
2022-09-03T02:15:28.616Z,88456.69
2022-09-03T02:18:13.316Z,88449.25
2022-09-03T02:20:58.099Z,88449.97
2022-09-03T02:23:42.954Z,88443.19
2022-09-03T02:26:27.746Z,88458.28
2022-09-03T02:29:12.633Z,88463.53
2022-09-03T02:31:57.421Z,88462.69
2022-09-03T02:34:42.242Z,88465.91
2022-09-03T02:37:27.065Z,88464.44
2022-09-03T02:40:11.830Z,88469.31
2022-09-03T02:42:56.938Z,88470.44
2022-09-03T02:45:41.791Z,88475.03
2022-09-03T02:48:26.967Z,88477.00
2022-09-03T02:51:14.094Z,88478.69
2022-09-03T02:53:59.581Z,88470.78
2022-09-03T02:56:44.512Z,88470.91
2022-09-03T02:59:29.205Z,88477.28
2022-09-03T03:02:13.965Z,88475.91
2022-09-03T03:04:59.167Z,88462.03
2022-09-03T03:07:43.857Z,88469.81
2022-09-03T03:10:28.690Z,88457.59
2022-09-03T03:13:13.396Z,88468.00
2022-09-03T03:15:58.227Z,88460.91
2022-09-03T03:18:43.008Z,88455.09
2022-09-03T03:21:27.811Z,88457.06
2022-09-03T03:24:12.552Z,88454.16
2022-09-03T03:26:57.361Z,88451.34
2022-09-03T03:29:42.212Z,88453.81
2022-09-03T03:32:26.973Z,88459.78
2022-09-03T03:35:11.723Z,88465.59
2022-09-03T03:37:56.376Z,88472.94
2022-09-03T03:40:41.397Z,88463.06
2022-09-03T03:43:26.012Z,88463.34
2022-09-03T03:46:11.064Z,88467.88
2022-09-03T03:48:56.284Z,88461.13
2022-09-03T03:51:40.994Z,88461.75
2022-09-03T03:54:25.720Z,88463.88
2022-09-03T03:57:10.403Z,88464.06
2022-09-03T03:59:55.160Z,88456.63
2022-09-03T04:02:39.944Z,88457.38
2022-09-03T04:05:25.389Z,88468.66
2022-09-03T04:08:11.618Z,88460.50
2022-09-03T04:10:56.415Z,88451.91
2022-09-03T04:13:41.090Z,88453.84
2022-09-03T04:16:26.124Z,88443.03
2022-09-03T04:19:11.356Z,88454.00
2022-09-03T04:21:56.089Z,88444.28
2022-09-03T04:24:40.890Z,88444.03
2022-09-03T04:27:25.606Z,88444.84
2022-09-03T04:30:10.490Z,88430.25
2022-09-03T04:32:55.210Z,88428.59
2022-09-03T04:35:40.001Z,88427.84
2022-09-03T04:38:24.838Z,88445.81
2022-09-03T04:41:10.007Z,88445.03
2022-09-03T04:43:54.838Z,88477.03
2022-09-03T04:46:39.612Z,88486.69
2022-09-03T04:49:24.643Z,88499.91
2022-09-03T04:52:09.399Z,88497.16
2022-09-03T04:54:54.457Z,88506.66
2022-09-03T04:57:39.153Z,88505.47
2022-09-03T05:00:23.987Z,88493.34
2022-09-03T05:03:08.641Z,88476.16
2022-09-03T05:05:53.512Z,88473.63
2022-09-03T05:08:38.257Z,88484.19
2022-09-03T05:11:23.480Z,88479.59
2022-09-03T05:14:08.446Z,88464.41
2022-09-03T05:16:53.473Z,88452.03
2022-09-03T05:19:38.766Z,88442.78
2022-09-03T05:22:23.535Z,88440.75
2022-09-03T05:25:08.238Z,88436.75
2022-09-03T05:27:52.932Z,88426.25
2022-09-03T05:30:37.639Z,88431.31
2022-09-03T05:33:22.256Z,88430.41
2022-09-03T05:36:07.037Z,88435.34
2022-09-03T05:38:51.908Z,88435.63
2022-09-03T05:41:36.748Z,88442.78
2022-09-03T05:44:21.612Z,88450.66
2022-09-03T05:47:06.543Z,88451.16
2022-09-03T05:49:51.335Z,88447.53
2022-09-03T05:52:36.018Z,88449.69
2022-09-03T05:55:20.888Z,88449.09
2022-09-03T05:58:05.970Z,88442.50
2022-09-03T06:00:50.879Z,88445.41
2022-09-03T06:03:35.603Z,88449.25
2022-09-03T06:06:20.779Z,88453.72
2022-09-03T06:09:05.582Z,88449.19
2022-09-03T06:11:50.431Z,88440.75
2022-09-03T06:14:37.693Z,88437.13
2022-09-03T06:17:22.489Z,88436.13
2022-09-03T06:20:07.244Z,88428.81
2022-09-03T06:22:52.129Z,88429.69
2022-09-03T06:25:36.848Z,88418.78
2022-09-03T06:28:23.346Z,88432.06
2022-09-03T06:31:11.433Z,88429.50
2022-09-03T06:33:59.744Z,88428.59
2022-09-03T06:36:48.467Z,88428.13
2022-09-03T06:39:33.310Z,88431.56
2022-09-03T06:42:18.418Z,88432.16
2022-09-03T06:45:03.094Z,88427.31
2022-09-03T06:47:47.832Z,88426.72
2022-09-03T06:50:34.791Z,88423.56
2022-09-03T06:53:19.962Z,88432.09
2022-09-03T06:56:04.698Z,88433.25
2022-09-03T06:58:49.448Z,88435.16
2022-09-03T07:01:34.194Z,88444.84
2022-09-03T07:04:20.398Z,88443.19
2022-09-03T07:07:05.505Z,88440.94
2022-09-03T07:09:50.288Z,88441.34
2022-09-03T07:12:35.051Z,88445.22
2022-09-03T07:15:19.860Z,88429.31
2022-09-03T07:18:04.680Z,88429.75
2022-09-03T07:20:49.495Z,88429.53
2022-09-03T07:23:34.311Z,88423.03
2022-09-03T07:26:18.982Z,88424.56
2022-09-03T07:29:03.833Z,88422.84
2022-09-03T07:31:48.664Z,88419.47
2022-09-03T07:34:33.856Z,88418.66
2022-09-03T07:37:19.163Z,88419.63
2022-09-03T07:40:04.087Z,88416.50
2022-09-03T07:42:53.253Z,88422.22
2022-09-03T07:45:40.062Z,88411.72
2022-09-03T07:48:25.165Z,88418.28
2022-09-03T07:51:10.229Z,88414.16
2022-09-03T07:53:54.905Z,88408.91
2022-09-03T07:56:39.936Z,88406.38
2022-09-03T07:59:24.816Z,88409.31
2022-09-03T08:02:10.141Z,88410.59
2022-09-03T08:04:55.192Z,88422.84
2022-09-03T08:07:40.094Z,88418.81
2022-09-03T08:10:27.059Z,88430.91
2022-09-03T08:13:11.707Z,88432.78
2022-09-03T08:15:56.546Z,88436.38
2022-09-03T08:18:41.722Z,88446.25
2022-09-03T08:21:26.560Z,88446.50
2022-09-03T08:24:11.318Z,88447.31
2022-09-03T08:26:56.048Z,88449.72
2022-09-03T08:29:40.834Z,88443.38
2022-09-03T08:32:25.555Z,88450.75
2022-09-03T08:35:10.324Z,88454.31
2022-09-03T08:37:56.943Z,88463.44
2022-09-03T08:40:42.105Z,88471.31
2022-09-03T08:43:26.748Z,88480.34
2022-09-03T08:46:11.661Z,88491.03
2022-09-03T08:48:56.520Z,88493.50
2022-09-03T08:51:41.393Z,88496.50
2022-09-03T08:54:26.210Z,88489.41
2022-09-03T08:57:11.017Z,88486.91
2022-09-03T08:59:56.198Z,88493.78
2022-09-03T09:02:41.340Z,88496.72
2022-09-03T09:05:26.736Z,88513.69
2022-09-03T09:08:11.880Z,88511.19
2022-09-03T09:10:56.766Z,88511.31
2022-09-03T09:13:41.557Z,88512.72
2022-09-03T09:16:26.432Z,88506.41
2022-09-03T09:19:11.717Z,88488.13
2022-09-03T09:21:56.517Z,88485.19
2022-09-03T09:24:41.353Z,88485.31
2022-09-03T09:27:26.086Z,88478.59
2022-09-03T09:30:10.869Z,88473.16
2022-09-03T09:32:55.574Z,88468.66
2022-09-03T09:35:40.232Z,88467.91
2022-09-03T09:38:25.001Z,88462.44
2022-09-03T09:41:10.274Z,88465.13
2022-09-03T09:43:55.077Z,88459.53
2022-09-03T09:46:39.883Z,88463.19
2022-09-03T09:49:24.803Z,88473.69
2022-09-03T09:52:09.433Z,88467.59
2022-09-03T09:54:54.130Z,88475.28
2022-09-03T09:57:38.934Z,88470.66
2022-09-03T10:00:23.948Z,88465.59
2022-09-03T10:03:09.149Z,88459.38
2022-09-03T10:05:54.423Z,88461.25
2022-09-03T10:08:39.672Z,88467.34
2022-09-03T10:11:24.503Z,88468.84
2022-09-03T10:14:09.180Z,88474.28
2022-09-03T10:16:53.997Z,88465.72
2022-09-03T10:19:39.481Z,88463.53
2022-09-03T10:22:24.168Z,88461.53
2022-09-03T10:25:10.108Z,88456.28
2022-09-03T10:27:54.732Z,88463.22
2022-09-03T10:30:39.586Z,88456.44
2022-09-03T10:33:24.777Z,88450.44
2022-09-03T10:36:09.650Z,88450.78
2022-09-03T10:38:54.623Z,88451.72
2022-09-03T10:41:39.377Z,88452.66
2022-09-03T10:44:24.037Z,88458.88
2022-09-03T10:47:08.724Z,88453.91
2022-09-03T10:49:53.528Z,88450.00
2022-09-03T10:52:38.311Z,88455.66
2022-09-03T10:55:23.101Z,88460.41
2022-09-03T10:58:07.768Z,88455.56
2022-09-03T11:00:52.660Z,88441.47
2022-09-03T11:03:37.449Z,88448.69
2022-09-03T11:06:22.200Z,88445.59
2022-09-03T11:09:07.047Z,88440.03
2022-09-03T11:11:51.813Z,88439.06
2022-09-03T11:14:36.626Z,88431.34
2022-09-03T11:17:21.173Z,88429.56
2022-09-03T11:20:05.984Z,88418.97
2022-09-03T11:22:50.714Z,88417.38
2022-09-03T11:25:35.622Z,88422.31
2022-09-03T11:28:20.677Z,88414.25
2022-09-03T11:31:06.745Z,88418.97
2022-09-03T11:33:51.920Z,88416.31
2022-09-03T11:36:36.654Z,88418.00
2022-09-03T11:39:21.458Z,88424.53
2022-09-03T11:42:06.563Z,88416.06
2022-09-03T11:44:52.121Z,88419.06
2022-09-03T11:47:37.368Z,88417.81
2022-09-03T11:50:22.097Z,88407.94
2022-09-03T11:53:07.465Z,88407.03
2022-09-03T11:55:52.745Z,88404.88
2022-09-03T11:58:37.992Z,88401.72
2022-09-03T12:01:22.691Z,88397.47
2022-09-03T12:04:07.436Z,88395.69
2022-09-03T12:06:52.109Z,88384.38
2022-09-03T12:09:36.895Z,88395.38
2022-09-03T12:12:21.795Z,88399.78
2022-09-03T12:15:06.626Z,88398.28
2022-09-03T12:17:51.642Z,88400.84
2022-09-03T12:20:36.404Z,88390.81
2022-09-03T12:23:21.324Z,88396.72
2022-09-03T12:26:06.028Z,88398.94
2022-09-03T12:28:51.838Z,88395.53
2022-09-03T12:31:40.108Z,88380.97
2022-09-03T12:34:27.820Z,88389.56
2022-09-03T12:37:12.605Z,88386.66
2022-09-03T12:40:06.545Z,88381.16
2022-09-03T12:42:52.718Z,88377.13
2022-09-03T12:48:43.984Z,88380.16
2022-09-03T12:54:34.015Z,88372.34
2022-09-03T12:57:18.766Z,88372.84
2022-09-03T13:00:03.690Z,88372.84
2022-09-03T13:02:48.340Z,88374.22
2022-09-03T13:05:33.195Z,88370.50
2022-09-03T13:08:17.918Z,88373.53
2022-09-03T13:11:02.647Z,88363.78
2022-09-03T13:13:47.362Z,88362.47
2022-09-03T13:16:32.123Z,88353.53
2022-09-03T13:19:17.502Z,88359.91
2022-09-03T13:22:02.235Z,88353.78
2022-09-03T13:24:47.157Z,88357.56
2022-09-03T13:27:31.761Z,88358.41
2022-09-03T13:30:16.612Z,88357.56
2022-09-03T13:33:01.636Z,88354.50
2022-09-03T13:35:46.799Z,88355.53
2022-09-03T13:38:37.114Z,88351.69
2022-09-03T13:41:22.260Z,88348.22
2022-09-03T13:44:07.008Z,88348.34
2022-09-03T13:46:52.280Z,88352.72
2022-09-03T13:49:37.061Z,88349.09
2022-09-03T13:52:21.833Z,88350.09
2022-09-03T13:55:06.508Z,88343.28
2022-09-03T13:57:51.367Z,88349.56
2022-09-03T14:00:36.162Z,88338.94
2022-09-03T14:03:21.052Z,88347.59
2022-09-03T14:06:06.872Z,88344.63
2022-09-03T14:08:55.385Z,88345.19
2022-09-03T14:11:40.736Z,88351.78
2022-09-03T14:14:25.415Z,88342.50
2022-09-03T14:17:10.172Z,88351.22
2022-09-03T14:19:54.902Z,88344.16
2022-09-03T14:22:39.732Z,88339.53
2022-09-03T14:25:24.412Z,88342.06
2022-09-03T14:28:09.248Z,88350.66
2022-09-03T14:30:55.599Z,88338.94
2022-09-03T14:33:40.592Z,88342.28
2022-09-03T14:36:25.392Z,88336.63
2022-09-03T14:39:09.978Z,88343.22
2022-09-03T14:41:54.676Z,88347.75
2022-09-03T14:44:39.435Z,88350.09
2022-09-03T14:47:24.298Z,88341.00
2022-09-03T14:50:08.968Z,88347.91
2022-09-03T14:52:53.749Z,88340.41
2022-09-03T14:55:38.601Z,88341.28
2022-09-03T14:58:23.367Z,88333.97
2022-09-03T15:01:08.188Z,88337.56
2022-09-03T15:03:53.221Z,88336.00
2022-09-03T15:06:38.054Z,88323.03
2022-09-03T15:09:22.728Z,88329.59
2022-09-03T15:12:07.436Z,88334.69
2022-09-03T15:14:52.722Z,88334.78
2022-09-03T15:17:37.451Z,88338.63
2022-09-03T15:20:22.154Z,88333.53
2022-09-03T15:23:06.990Z,88342.31
2022-09-03T15:25:51.856Z,88345.75
2022-09-03T15:28:36.580Z,88344.72
2022-09-03T15:31:21.212Z,88340.38
2022-09-03T15:34:05.816Z,88337.88
2022-09-03T15:36:50.642Z,88349.81
2022-09-03T15:39:35.885Z,88338.13
2022-09-03T15:42:20.644Z,88337.72
2022-09-03T15:45:05.444Z,88339.66
2022-09-03T15:47:52.191Z,88352.91
2022-09-03T15:50:37.653Z,88361.50
2022-09-03T15:53:22.463Z,88363.22
2022-09-03T15:56:11.661Z,88372.94
2022-09-03T15:58:58.541Z,88367.59
2022-09-03T16:01:43.176Z,88378.34
2022-09-03T16:04:28.045Z,88369.69
2022-09-03T16:07:12.655Z,88369.16
2022-09-03T16:10:22.672Z,88366.94
2022-09-03T16:13:02.570Z,88370.56
2022-09-03T16:15:47.350Z,88369.28
2022-09-03T16:18:32.239Z,88371.31
2022-09-03T16:21:16.905Z,88373.75
2022-09-03T16:24:01.616Z,88379.59
2022-09-03T16:26:46.866Z,88378.56
2022-09-03T16:29:31.665Z,88375.66
2022-09-03T16:32:16.590Z,88372.22
2022-09-03T16:35:01.389Z,88372.78
2022-09-03T16:37:46.333Z,88380.78
2022-09-03T16:40:31.115Z,88383.03
2022-09-03T16:43:39.293Z,88378.31
2022-09-03T16:46:20.933Z,88386.53
2022-09-03T16:49:05.736Z,88388.69
2022-09-03T16:51:50.571Z,88382.00
2022-09-03T16:54:35.801Z,88383.97
2022-09-03T16:57:20.574Z,88386.31
2022-09-03T17:00:05.304Z,88380.88
2022-09-03T17:02:50.130Z,88388.06
2022-09-03T17:05:34.923Z,88390.34
2022-09-03T17:08:20.077Z,88387.50
2022-09-03T17:11:05.051Z,88383.78
2022-09-03T17:13:49.743Z,88388.53
2022-09-03T17:16:34.636Z,88394.72
2022-09-03T17:19:19.703Z,88391.59
2022-09-03T17:22:04.410Z,88386.78
2022-09-03T17:24:49.161Z,88394.56
2022-09-03T17:27:33.926Z,88391.31
2022-09-03T17:30:18.591Z,88392.00
2022-09-03T17:33:03.311Z,88392.06
2022-09-03T17:35:48.109Z,88399.63
2022-09-03T17:38:32.833Z,88399.53
2022-09-03T17:41:17.590Z,88408.16
2022-09-03T17:44:02.159Z,88414.47
2022-09-03T17:46:46.988Z,88423.50
2022-09-03T17:49:32.242Z,88418.94
2022-09-03T17:52:16.914Z,88430.31
2022-09-03T17:55:01.728Z,88428.25
2022-09-03T17:57:47.013Z,88435.81
2022-09-03T18:00:31.810Z,88440.25
2022-09-03T18:03:16.518Z,88445.53
2022-09-03T18:06:01.353Z,88447.09
2022-09-03T18:08:46.451Z,88449.03
2022-09-03T18:11:33.835Z,88453.94
2022-09-03T18:14:18.980Z,88464.78
2022-09-03T18:17:03.727Z,88462.88
2022-09-03T18:19:48.434Z,88462.56
2022-09-03T18:22:33.248Z,88470.22
2022-09-03T18:25:18.084Z,88469.75
2022-09-03T18:28:02.848Z,88471.19
2022-09-03T18:30:47.642Z,88474.91
2022-09-03T18:33:32.277Z,88479.25
2022-09-03T18:36:17.101Z,88481.13
2022-09-03T18:39:01.754Z,88488.28
2022-09-03T18:41:46.679Z,88497.75
2022-09-03T18:44:31.300Z,88507.38
2022-09-03T18:48:02.274Z,88507.38
2022-09-03T18:50:21.055Z,88519.88
2022-09-03T18:53:05.722Z,88528.06
2022-09-03T18:55:50.333Z,88525.91
2022-09-03T18:58:35.075Z,88550.34
2022-09-03T19:01:19.855Z,88552.63
2022-09-03T19:04:05.097Z,88552.94
2022-09-03T19:06:49.863Z,88567.44
2022-09-03T19:09:34.655Z,88570.13
2022-09-03T19:12:19.373Z,88581.31
2022-09-03T19:15:04.203Z,88573.63
2022-09-03T19:17:48.900Z,88583.16
2022-09-03T19:20:33.741Z,88587.06
2022-09-03T19:23:18.455Z,88594.03
2022-09-03T19:26:03.265Z,88584.22
2022-09-03T19:28:47.944Z,88593.75
2022-09-03T19:31:33.025Z,88595.34
2022-09-03T19:34:18.240Z,88603.63
2022-09-03T19:37:02.902Z,88599.22
2022-09-03T19:39:47.677Z,88602.22
2022-09-03T19:42:32.724Z,88608.06
2022-09-03T19:45:17.489Z,88614.22
2022-09-03T19:48:02.591Z,88621.16
2022-09-03T19:50:47.952Z,88628.44
2022-09-03T19:53:33.225Z,88614.53
2022-09-03T19:56:17.961Z,88607.41
2022-09-03T19:59:02.801Z,88610.00
2022-09-03T20:01:47.891Z,88614.88
2022-09-03T20:04:33.389Z,88620.47
2022-09-03T20:07:18.073Z,88626.25
2022-09-03T20:10:02.985Z,88624.44
2022-09-03T20:12:47.682Z,88626.72
2022-09-03T20:15:32.476Z,88628.72
2022-09-03T20:18:17.211Z,88629.41
2022-09-03T20:21:02.420Z,88631.16
2022-09-03T20:23:47.186Z,88632.72
2022-09-03T20:26:31.997Z,88637.69
2022-09-03T20:29:16.880Z,88638.72
2022-09-03T20:32:01.587Z,88633.00
2022-09-03T20:34:46.396Z,88632.81
2022-09-03T20:37:31.179Z,88632.81
2022-09-03T20:40:15.876Z,88643.66
2022-09-03T20:43:00.552Z,88643.75
2022-09-03T20:45:45.424Z,88642.28
2022-09-03T20:48:30.141Z,88649.00
2022-09-03T20:51:14.908Z,88639.13
2022-09-03T20:53:59.789Z,88651.22
2022-09-03T20:56:44.503Z,88652.22
2022-09-03T20:59:29.411Z,88649.34
2022-09-03T21:02:14.129Z,88652.38
2022-09-03T21:04:58.822Z,88646.19
2022-09-03T21:07:43.614Z,88649.34
2022-09-03T21:10:28.361Z,88645.06
2022-09-03T21:13:13.045Z,88647.28
2022-09-03T21:15:57.958Z,88656.06
2022-09-03T21:18:42.728Z,88659.06
2022-09-03T21:21:27.604Z,88653.97
2022-09-03T21:24:12.337Z,88650.72
2022-09-03T21:26:57.061Z,88653.41
2022-09-03T21:29:42.001Z,88651.41
2022-09-03T21:32:26.669Z,88651.44
2022-09-03T21:35:11.588Z,88648.50
2022-09-03T21:37:56.301Z,88655.41
2022-09-03T21:40:41.144Z,88659.06
2022-09-03T21:43:28.503Z,88660.09
2022-09-03T21:46:13.318Z,88652.31
2022-09-03T21:48:58.057Z,88659.13
2022-09-03T21:51:42.725Z,88662.97
2022-09-03T21:54:27.590Z,88671.72
2022-09-03T21:57:12.258Z,88666.97
2022-09-03T21:59:56.995Z,88668.66
2022-09-03T22:02:41.883Z,88671.88
2022-09-03T22:05:26.942Z,88670.47
2022-09-03T22:08:12.735Z,88679.09
2022-09-03T22:10:57.481Z,88675.28
2022-09-03T22:13:42.366Z,88676.09
2022-09-03T22:16:27.091Z,88680.41
2022-09-03T22:19:11.794Z,88682.78
2022-09-03T22:21:56.664Z,88683.19
2022-09-03T22:24:44.388Z,88676.16
2022-09-03T22:27:29.260Z,88687.44
2022-09-03T22:30:13.927Z,88684.16
2022-09-03T22:32:58.862Z,88689.31
2022-09-03T22:35:43.557Z,88674.03
2022-09-03T22:38:28.400Z,88690.75
2022-09-03T22:41:13.017Z,88689.44
2022-09-03T22:43:57.776Z,88690.28
2022-09-03T22:46:42.572Z,88698.66
2022-09-03T22:49:27.756Z,88694.88
2022-09-03T22:52:12.601Z,88688.72
2022-09-03T22:54:57.423Z,88696.03
2022-09-03T22:57:42.258Z,88691.38
2022-09-03T23:00:26.916Z,88692.38
2022-09-03T23:03:11.923Z,88690.00
2022-09-03T23:05:59.759Z,88699.84
2022-09-03T23:08:44.641Z,88703.72
2022-09-03T23:11:29.314Z,88710.41
2022-09-03T23:14:13.962Z,88702.97
2022-09-03T23:16:58.992Z,88696.59
2022-09-03T23:19:44.103Z,88704.78
2022-09-03T23:22:29.005Z,88707.41
2022-09-03T23:25:13.769Z,88714.97
2022-09-03T23:27:58.667Z,88715.94
2022-09-03T23:30:43.341Z,88718.91
2022-09-03T23:33:28.020Z,88717.66
2022-09-03T23:36:12.719Z,88726.28
2022-09-03T23:38:57.432Z,88724.84
2022-09-03T23:41:42.192Z,88721.78
2022-09-03T23:44:26.955Z,88724.47
2022-09-03T23:47:16.349Z,88725.72
2022-09-03T23:50:01.081Z,88723.09
2022-09-03T23:52:45.926Z,88730.91
2022-09-03T23:55:30.803Z,88732.72
2022-09-03T23:58:16.528Z,88737.59
